Time;durP1;ratioP1;P1;durP2;ratioP2;P2;SDS_P1;SDS_P2;PMS_P1;PMS_P2;Temp;Humidity;BMP_temperature;BMP_pressure;BME280_temperature;BME280_humidity;BME280_pressure;Samples;Min_cycle;Max_cycle;Signal;HPM_P1;HPM_P2
2022/07/14 00:00:08;;;;;;;1.73;0.80;;;22.60;50.30;;;;;;2074683;28;20052;-91
2022/07/14 00:01:09;;;;;;;2.10;0.82;;;22.60;50.30;;;;;;2058382;28;20042;-91
2022/07/14 00:02:09;;;;;;;3.83;0.90;;;22.60;50.30;;;;;;2060447;28;20041;-90
2022/07/14 00:03:10;;;;;;;1.97;0.63;;;22.60;50.40;;;;;;2066313;28;20022;-92
2022/07/14 00:04:11;;;;;;;2.03;0.77;;;22.60;50.20;;;;;;2068835;28;20030;-92
2022/07/14 00:05:12;;;;;;;2.43;0.80;;;22.60;50.10;;;;;;2083920;28;20025;-91
2022/07/14 00:06:13;;;;;;;2.77;1.00;;;22.60;50.10;;;;;;2077719;28;20037;-90
2022/07/14 00:07:14;;;;;;;4.20;0.73;;;22.60;50.10;;;;;;2062621;28;20030;-91
2022/07/14 00:08:15;;;;;;;3.53;0.60;;;22.60;50.10;;;;;;2068562;28;20073;-90
2022/07/14 00:09:15;;;;;;;1.97;0.80;;;22.60;50.10;;;;;;2081617;28;20439;-90
2022/07/14 00:10:16;;;;;;;1.60;0.77;;;22.60;50.10;;;;;;2078183;28;20494;-92
2022/07/14 00:11:17;;;;;;;1.50;0.80;;;22.60;50.10;;;;;;2067831;28;20057;-89
2022/07/14 00:12:18;;;;;;;1.97;1.10;;;22.60;50.10;;;;;;2070443;28;20260;-90
2022/07/14 00:13:19;;;;;;;3.03;1.20;;;22.50;50.10;;;;;;2060591;28;20026;-91
2022/07/14 00:14:19;;;;;;;3.17;0.77;;;22.50;50.50;;;;;;2073063;28;20440;-89
2022/07/14 00:15:21;;;;;;;2.10;0.90;;;22.50;49.90;;;;;;2074940;28;20489;-92
2022/07/14 00:16:22;;;;;;;1.70;0.70;;;22.50;49.90;;;;;;2068780;28;20026;-90
2022/07/14 00:17:23;;;;;;;2.10;0.93;;;22.50;49.80;;;;;;2070250;28;20062;-89
2022/07/14 00:18:23;;;;;;;1.40;0.60;;;22.50;49.80;;;;;;2068051;28;20026;-90
2022/07/14 00:19:24;;;;;;;2.80;0.50;;;22.50;50.00;;;;;;2060980;28;20022;-90
2022/07/14 00:20:25;;;;;;;1.47;1.10;;;22.50;49.80;;;;;;2077410;28;20030;-89
2022/07/14 00:21:26;;;;;;;2.35;0.95;;;22.50;49.80;;;;;;2077092;28;20053;-90
2022/07/14 00:22:27;;;;;;;3.70;0.87;;;22.40;49.70;;;;;;2070041;28;20038;-92
2022/07/14 00:23:28;;;;;;;2.00;0.60;;;22.50;49.80;;;;;;2077196;28;20022;-91
2022/07/14 00:24:29;;;;;;;1.13;0.60;;;22.40;49.60;;;;;;2064328;28;20078;-90
2022/07/14 00:25:29;;;;;;;3.03;1.20;;;22.40;49.60;;;;;;2057234;28;20094;-90
2022/07/14 00:26:30;;;;;;;2.93;0.70;;;22.40;49.60;;;;;;2071859;28;20052;-90
2022/07/14 00:27:31;;;;;;;1.33;0.80;;;22.40;49.60;;;;;;2071051;28;20031;-91
2022/07/14 00:28:32;;;;;;;2.73;0.67;;;22.40;49.50;;;;;;2060539;28;20041;-90
2022/07/14 00:29:35;;;;;;;3.63;0.90;;;22.40;49.50;;;;;;2081018;28;20025;-89
2022/07/14 00:30:36;;;;;;;1.35;0.70;;;22.40;49.50;;;;;;2085004;28;20026;-91
2022/07/14 00:31:37;;;;;;;1.77;0.80;;;22.30;49.60;;;;;;2084282;28;20608;-89
2022/07/14 00:32:38;;;;;;;3.17;0.70;;;22.40;49.70;;;;;;2070163;28;20046;-88
2022/07/14 00:33:39;;;;;;;1.83;0.93;;;22.30;49.50;;;;;;2061112;28;20377;-90
2022/07/14 00:34:41;;;;;;;1.67;0.77;;;22.30;49.40;;;;;;2076863;28;20026;-91
2022/07/14 00:35:42;;;;;;;1.55;0.70;;;22.30;49.40;;;;;;2068986;28;20026;-91
2022/07/14 00:36:43;;;;;;;0.93;0.60;;;22.30;49.40;;;;;;2075539;28;20049;-90
2022/07/14 00:37:43;;;;;;;1.67;1.00;;;22.30;49.50;;;;;;2076204;28;20105;-91
2022/07/14 00:38:44;;;;;;;3.70;0.70;;;22.30;49.30;;;;;;2069087;28;20369;-89
2022/07/14 00:39:57;;;;;;;4.13;0.80;;;22.30;49.40;;;;;;2091891;28;20126;-90
2022/07/14 00:40:58;;;;;;;1.45;0.65;;;22.30;49.40;;;;;;2076073;28;20050;-89
2022/07/14 00:41:59;;;;;;;1.00;0.70;;;22.30;49.50;;;;;;2068787;28;20355;-91
2022/07/14 00:43:01;;;;;;;3.25;1.02;;;22.30;49.40;;;;;;2068759;28;20026;-90
2022/07/14 00:44:02;;;;;;;;;;;22.30;49.40;;;;;;2069531;28;20053;-89
2022/07/14 00:45:07;;;;;;;1.73;0.68;;;22.20;49.30;;;;;;2062626;28;19941;-91
2022/07/14 00:46:07;;;;;;;0.57;0.45;;;22.30;49.30;;;;;;2076646;28;20748;-91
2022/07/14 00:47:08;;;;;;;1.77;0.60;;;22.30;49.30;;;;;;2085121;28;20269;-89
2022/07/14 00:48:10;;;;;;;1.90;0.60;;;22.20;49.30;;;;;;2073794;28;20073;-89
2022/07/14 00:49:11;;;;;;;;;;;22.20;49.20;;;;;;2077362;28;20094;-90
2022/07/14 00:50:13;;;;;;;1.67;0.60;;;22.20;49.20;;;;;;2066989;28;20018;-91
2022/07/14 00:51:14;;;;;;;3.30;0.82;;;22.20;49.30;;;;;;2059985;28;20027;-90
2022/07/14 00:52:15;;;;;;;2.35;0.70;;;22.20;49.20;;;;;;2055405;28;20352;-91
2022/07/14 00:53:16;;;;;;;1.63;0.60;;;22.20;49.30;;;;;;2063328;28;20048;-89
2022/07/14 00:54:26;;;;;;;2.13;0.90;;;22.20;49.20;;;;;;2076857;28;20026;-88
2022/07/14 00:55:27;;;;;;;1.73;0.70;;;22.20;49.20;;;;;;2068822;28;20349;-90
2022/07/14 00:56:28;;;;;;;2.57;0.70;;;22.20;49.20;;;;;;2060614;28;20423;-90
2022/07/14 00:57:29;;;;;;;2.43;0.90;;;22.20;49.10;;;;;;2068870;28;20031;-90
2022/07/14 00:58:29;;;;;;;1.43;0.87;;;22.20;49.20;;;;;;2060084;28;20030;-90
2022/07/14 00:59:30;;;;;;;2.90;0.70;;;22.20;49.20;;;;;;2076990;28;20129;-90
2022/07/14 01:00:31;;;;;;;0.97;0.70;;;22.20;49.10;;;;;;2068744;28;20357;-91
2022/07/14 01:01:32;;;;;;;1.20;0.70;;;22.20;49.00;;;;;;2052698;28;20121;-91
2022/07/14 01:02:33;;;;;;;1.40;1.03;;;22.20;49.10;;;;;;2066135;28;20268;-91
2022/07/14 01:03:34;;;;;;;2.70;0.90;;;22.10;49.00;;;;;;2062429;28;20021;-90
2022/07/14 01:04:35;;;;;;;1.67;0.77;;;22.10;49.00;;;;;;2075666;28;20297;-90
2022/07/14 01:05:36;;;;;;;1.33;0.60;;;22.10;48.80;;;;;;2070831;28;20034;-89
2022/07/14 01:06:37;;;;;;;2.17;0.73;;;22.10;48.80;;;;;;2076806;28;20396;-89
2022/07/14 01:07:38;;;;;;;1.43;0.50;;;22.10;48.90;;;;;;2081791;28;20064;-91
2022/07/14 01:08:39;;;;;;;0.97;0.53;;;22.10;49.00;;;;;;2063301;28;20111;-91
2022/07/14 01:09:40;;;;;;;2.53;0.70;;;22.10;48.90;;;;;;2052287;28;20126;-90
2022/07/14 01:10:41;;;;;;;0.90;0.60;;;22.10;48.90;;;;;;2060849;28;20027;-90
2022/07/14 01:11:42;;;;;;;1.67;0.70;;;22.10;49.00;;;;;;2075722;28;20341;-91
2022/07/14 01:12:49;;;;;;;1.03;0.70;;;22.10;48.90;;;;;;2084857;28;20017;-90
2022/07/14 01:13:50;;;;;;;2.45;0.80;;;22.10;48.90;;;;;;2069099;28;20092;-90
2022/07/14 01:14:51;;;;;;;2.13;0.77;;;22.10;48.90;;;;;;2060209;28;20269;-90
2022/07/14 01:15:54;;;;;;;1.98;0.90;;;22.10;48.80;;;;;;2074939;28;20041;-90
2022/07/14 01:16:56;;;;;;;1.07;0.70;;;22.10;48.80;;;;;;2075642;28;20299;-89
2022/07/14 01:17:57;;;;;;;1.13;0.70;;;22.00;48.80;;;;;;2066165;28;20133;-89
2022/07/14 01:18:58;;;;;;;2.38;0.70;;;22.00;48.80;;;;;;2075994;28;20263;-89
2022/07/14 01:19:59;;;;;;;1.67;0.70;;;22.00;48.90;;;;;;2083657;28;20056;-89
2022/07/14 01:21:00;;;;;;;1.57;0.77;;;22.00;48.80;;;;;;2059448;28;20089;-89
2022/07/14 01:22:02;;;;;;;2.45;0.70;;;22.00;48.80;;;;;;2059344;28;20031;-90
2022/07/14 01:23:05;;;;;;;1.63;0.70;;;22.00;49.40;;;;;;2067706;28;20038;-89
2022/07/14 01:24:08;;;;;;;1.20;0.70;;;22.00;48.80;;;;;;2074791;28;20263;-90
2022/07/14 01:25:10;;;;;;;3.55;0.70;;;22.00;48.80;;;;;;2073975;28;20350;-90
2022/07/14 01:26:13;;;;;;;2.55;0.95;;;22.00;48.80;;;;;;2061249;28;20357;-89
2022/07/14 01:27:15;;;;;;;3.03;0.77;;;22.00;48.70;;;;;;2059380;28;20284;-90
2022/07/14 01:28:17;;;;;;;1.35;0.70;;;22.00;48.70;;;;;;2063486;28;20267;-90
2022/07/14 01:29:19;;;;;;;1.43;0.60;;;22.00;48.70;;;;;;2067302;28;20061;-90
2022/07/14 01:30:20;;;;;;;;;;;22.00;48.80;;;;;;2059676;28;20147;-90
2022/07/14 01:31:22;;;;;;;1.38;0.70;;;21.90;48.70;;;;;;2063023;28;19910;-89
2022/07/14 01:32:23;;;;;;;3.00;0.70;;;21.90;48.80;;;;;;2061401;28;20023;-89
2022/07/14 01:33:24;;;;;;;0.52;0.40;;;21.90;48.80;;;;;;2067193;28;20030;-89
2022/07/14 01:34:26;;;;;;;2.37;0.87;;;21.90;48.80;;;;;;2067213;28;20134;-90
2022/07/14 01:35:29;;;;;;;1.58;0.60;;;21.90;48.70;;;;;;2067958;28;20033;-90
2022/07/14 01:36:30;;;;;;;0.88;0.63;;;21.90;48.80;;;;;;2064008;28;20594;-90
2022/07/14 01:37:31;;;;;;;1.63;0.60;;;21.90;48.80;;;;;;2075653;28;20029;-89
2022/07/14 01:38:32;;;;;;;2.38;0.50;;;21.90;48.80;;;;;;2066608;28;20045;-91
2022/07/14 01:39:33;;;;;;;1.20;0.60;;;21.90;48.70;;;;;;2073312;28;20034;-90
2022/07/14 01:40:34;;;;;;;2.90;0.77;;;21.90;48.70;;;;;;2059077;28;20031;-90
2022/07/14 01:41:35;;;;;;;2.10;0.60;;;21.90;48.70;;;;;;2075310;28;20438;-91
2022/07/14 01:42:36;;;;;;;2.40;0.55;;;21.90;48.70;;;;;;2075301;28;20034;-90
2022/07/14 01:43:37;;;;;;;1.90;0.70;;;21.90;48.90;;;;;;2074703;28;20022;-92
2022/07/14 01:44:39;;;;;;;2.30;1.00;;;21.80;48.90;;;;;;2055414;28;20024;-90
2022/07/14 01:45:41;;;;;;;1.98;0.68;;;21.80;48.70;;;;;;2062645;28;20061;-90
2022/07/14 01:46:42;;;;;;;1.80;0.70;;;21.80;48.80;;;;;;2067092;28;20057;-91
2022/07/14 01:47:43;;;;;;;1.63;0.60;;;21.80;48.80;;;;;;2059224;28;20025;-91
2022/07/14 01:48:44;;;;;;;1.43;0.70;;;21.80;48.70;;;;;;2066569;28;20034;-90
2022/07/14 01:49:44;;;;;;;6.77;0.50;;;21.80;48.70;;;;;;2069173;28;20037;-91
2022/07/14 01:50:45;;;;;;;1.20;0.53;;;21.80;48.70;;;;;;2078104;28;20033;-90
2022/07/14 01:51:46;;;;;;;3.40;0.70;;;21.80;48.60;;;;;;2070353;28;20475;-91
2022/07/14 01:52:48;;;;;;;1.85;0.60;;;21.80;48.60;;;;;;2066065;28;20022;-90
2022/07/14 01:53:49;;;;;;;0.57;0.37;;;21.80;48.60;;;;;;2066938;28;20073;-91
2022/07/14 01:54:50;;;;;;;0.63;0.50;;;21.70;48.50;;;;;;2083102;28;20078;-90
2022/07/14 01:55:51;;;;;;;1.20;0.47;;;21.80;48.70;;;;;;2083171;28;20021;-90
2022/07/14 01:56:51;;;;;;;1.93;0.60;;;21.80;48.60;;;;;;2075068;28;20030;-91
2022/07/14 01:57:52;;;;;;;0.63;0.47;;;21.70;48.50;;;;;;2057811;28;20026;-89
2022/07/14 01:58:53;;;;;;;2.63;0.60;;;21.70;48.60;;;;;;2054110;28;20022;-90
2022/07/14 01:59:54;;;;;;;2.15;0.70;;;21.70;48.70;;;;;;2075062;28;20036;-90
2022/07/14 02:02:32;;;;;;;0.90;0.60;;;21.70;48.60;;;;;;2047557;28;20101;-89
2022/07/14 02:03:34;;;;;;;2.17;0.80;;;21.70;48.60;;;;;;2054488;28;20280;-89
2022/07/14 02:04:35;;;;;;;2.25;0.50;;;21.70;48.70;;;;;;2065951;28;20570;-90
2022/07/14 02:05:36;;;;;;;1.63;0.70;;;21.70;48.70;;;;;;2075906;28;20038;-91
2022/07/14 02:06:44;;;;;;;1.70;0.68;;;21.70;48.70;;;;;;2055834;28;20035;-91
2022/07/14 02:07:50;;;;;;;;;;;21.70;48.60;;;;;;2065327;28;20045;-91
2022/07/14 02:08:57;;;;;;;0.70;0.50;;;21.70;48.70;;;;;;2069289;28;19993;-91
2022/07/14 02:12:42;;;;;;;1.25;0.60;;;21.70;48.80;;;;;;2071697;28;20606;-89
2022/07/14 02:13:45;;;;;;;1.27;0.60;;;21.60;48.90;;;;;;2059095;28;20347;-90
2022/07/14 02:14:46;;;;;;;2.55;0.60;;;21.60;48.80;;;;;;2074817;28;20264;-90
2022/07/14 02:15:47;;;;;;;2.87;0.60;;;21.60;49.50;;;;;;2068848;28;20030;-89
2022/07/14 02:16:49;;;;;;;;;;;21.70;48.90;;;;;;2067499;28;20117;-89
2022/07/14 02:17:50;;;;;;;1.40;0.70;;;21.60;48.90;;;;;;2057897;28;19944;-90
2022/07/14 02:18:53;;;;;;;2.58;0.75;;;21.60;49.00;;;;;;2075027;28;20111;-90
2022/07/14 02:19:54;;;;;;;1.48;0.85;;;21.60;49.00;;;;;;2066713;28;20256;-90
2022/07/14 02:20:55;;;;;;;2.75;0.93;;;21.60;49.00;;;;;;2067900;28;20034;-90
2022/07/14 02:21:57;;;;;;;0.90;0.77;;;21.60;49.10;;;;;;2066682;28;20048;-90
2022/07/14 02:22:58;;;;;;;2.10;0.70;;;21.50;49.00;;;;;;2072094;28;20025;-90
2022/07/14 02:23:59;;;;;;;0.93;0.70;;;21.50;49.20;;;;;;2081960;28;20033;-89
2022/07/14 02:24:59;;;;;;;1.17;0.80;;;21.50;49.20;;;;;;2065627;28;20026;-89
2022/07/14 02:26:00;;;;;;;2.00;0.73;;;21.50;49.20;;;;;;2067733;28;20268;-90
2022/07/14 02:27:01;;;;;;;1.37;0.83;;;21.50;49.40;;;;;;2062378;28;20026;-91
2022/07/14 02:28:02;;;;;;;2.10;0.80;;;21.50;49.40;;;;;;2062192;28;20026;-90
2022/07/14 02:29:05;;;;;;;1.37;0.70;;;21.50;49.40;;;;;;2066549;28;20123;-89
2022/07/14 02:30:06;;;;;;;2.78;0.90;;;21.50;49.50;;;;;;2091423;28;20037;-90
2022/07/14 02:31:09;;;;;;;2.80;0.68;;;21.50;49.60;;;;;;2086317;28;20663;-88
2022/07/14 02:32:11;;;;;;;1.70;0.90;;;21.50;49.60;;;;;;2082895;28;20037;-89
2022/07/14 02:33:11;;;;;;;4.67;0.90;;;21.50;49.60;;;;;;2088730;28;20270;-88
2022/07/14 02:34:13;;;;;;;1.40;0.83;;;21.50;49.60;;;;;;2083015;28;20038;-91
2022/07/14 02:35:14;;;;;;;2.33;0.70;;;21.50;49.80;;;;;;2066783;28;20026;-88
2022/07/14 02:36:16;;;;;;;2.90;0.85;;;21.50;49.80;;;;;;2058976;28;20425;-89
2022/07/14 02:37:17;;;;;;;1.85;0.80;;;21.50;49.80;;;;;;2058828;28;20034;-90
2022/07/14 02:38:17;;;;;;;1.43;0.70;;;21.50;49.90;;;;;;2063026;28;20436;-88
2022/07/14 02:39:19;;;;;;;2.67;0.95;;;21.50;49.90;;;;;;2060637;28;20229;-91
2022/07/14 02:40:20;;;;;;;2.27;0.97;;;21.40;49.90;;;;;;2066385;28;20047;-89
2022/07/14 02:41:21;;;;;;;2.03;0.87;;;21.40;50.00;;;;;;2057540;28;20288;-89
2022/07/14 02:44:39;;;;;;;1.20;0.70;;;21.50;50.10;;;;;;2083964;28;20036;-88
2022/07/14 02:45:40;;;;;;;1.70;0.80;;;21.40;50.10;;;;;;2074233;28;20594;-89
2022/07/14 02:46:41;;;;;;;1.80;0.93;;;21.40;50.80;;;;;;2074995;28;20036;-89
2022/07/14 02:47:42;;;;;;;1.73;1.00;;;21.40;50.20;;;;;;2074655;28;20021;-90
2022/07/14 02:48:43;;;;;;;1.95;0.90;;;21.40;50.30;;;;;;2066551;28;20031;-89
2022/07/14 02:49:44;;;;;;;1.83;0.80;;;21.40;50.30;;;;;;2058303;28;20026;-89
2022/07/14 02:50:45;;;;;;;1.20;0.90;;;21.40;50.30;;;;;;2066458;28;20109;-91
2022/07/14 02:51:46;;;;;;;4.53;0.73;;;21.40;50.40;;;;;;2058553;28;20031;-91
2022/07/14 02:52:47;;;;;;;3.93;1.10;;;21.40;50.40;;;;;;2074748;28;20034;-89
2022/07/14 02:53:48;;;;;;;3.07;0.90;;;21.40;50.40;;;;;;2067388;28;20030;-89
2022/07/14 02:54:49;;;;;;;2.80;0.65;;;21.40;50.50;;;;;;2060273;28;20023;-90
2022/07/14 02:55:50;;;;;;;0.90;0.63;;;21.40;50.50;;;;;;2051522;28;20121;-90
2022/07/14 02:56:52;;;;;;;3.95;0.90;;;21.40;50.60;;;;;;2058612;28;20070;-91
2022/07/14 02:57:53;;;;;;;4.05;0.90;;;21.40;50.50;;;;;;2063563;28;20034;-88
2022/07/14 02:58:56;;;;;;;1.35;0.80;;;21.40;50.60;;;;;;2058921;28;20025;-90
2022/07/14 02:59:56;;;;;;;2.83;0.85;;;21.30;50.60;;;;;;2058694;28;20038;-89
2022/07/14 03:00:57;;;;;;;2.83;1.00;;;21.30;50.60;;;;;;2057082;28;20027;-89
2022/07/14 03:01:58;;;;;;;1.67;0.80;;;21.30;50.60;;;;;;2074438;28;20029;-88
2022/07/14 03:03:00;;;;;;;1.53;1.00;;;21.30;50.70;;;;;;2082943;28;20053;-88
2022/07/14 03:04:02;;;;;;;2.25;0.90;;;21.30;50.70;;;;;;2066796;28;20015;-90
2022/07/14 03:05:04;;;;;;;1.27;0.70;;;21.30;50.70;;;;;;2069136;28;20271;-89
2022/07/14 03:06:08;;;;;;;2.00;0.70;;;21.30;50.70;;;;;;2066616;28;20022;-88
2022/07/14 03:07:09;;;;;;;3.78;0.82;;;21.30;50.70;;;;;;2067956;28;20260;-89
2022/07/14 03:08:10;;;;;;;1.53;0.70;;;21.30;50.70;;;;;;2066487;28;20267;-90
2022/07/14 03:09:11;;;;;;;1.70;0.70;;;21.30;50.70;;;;;;2058567;28;20054;-89
2022/07/14 03:10:12;;;;;;;1.33;1.00;;;21.30;50.70;;;;;;2065341;28;20438;-89
2022/07/14 03:11:13;;;;;;;5.70;0.87;;;21.30;50.80;;;;;;2065556;28;20042;-88
2022/07/14 03:12:13;;;;;;;1.77;0.70;;;21.30;50.80;;;;;;2075396;28;20025;-89
2022/07/14 03:13:16;;;;;;;1.20;0.70;;;21.30;50.80;;;;;;2075059;28;20076;-90
2022/07/14 03:14:19;;;;;;;1.88;0.80;;;21.20;50.70;;;;;;2070481;28;20268;-90
2022/07/14 03:15:21;;;;;;;;;;;21.20;50.80;;;;;;2066812;28;20279;-89
2022/07/14 03:16:22;;;;;;;1.42;0.80;;;21.20;50.80;;;;;;2073475;28;19928;-89
2022/07/14 03:17:27;;;;;;;1.70;0.68;;;21.20;50.80;;;;;;2082578;28;20270;-89
2022/07/14 03:18:28;;;;;;;3.22;1.05;;;21.20;50.80;;;;;;2081738;28;20251;-89
2022/07/14 03:19:30;;;;;;;;;;;21.20;51.00;;;;;;2067000;28;20034;-88
2022/07/14 03:20:32;;;;;;;1.40;0.80;;;21.20;51.00;;;;;;2066773;28;19910;-89
2022/07/14 03:21:32;;;;;;;1.73;0.80;;;21.20;51.50;;;;;;2081628;28;20612;-88
2022/07/14 03:22:35;;;;;;;2.72;0.80;;;21.20;51.00;;;;;;2072169;28;20049;-89
2022/07/14 03:23:44;;;;;;;2.40;0.90;;;21.20;51.00;;;;;;2060018;28;20292;-90
2022/07/14 03:24:49;;;;;;;2.92;0.75;;;21.20;50.90;;;;;;2057269;28;20296;-89
2022/07/14 03:25:50;;;;;;;2.73;0.80;;;21.20;50.90;;;;;;2059870;28;20276;-89
2022/07/14 03:26:51;;;;;;;1.57;0.77;;;21.10;51.00;;;;;;2079067;28;20524;-90
2022/07/14 03:27:53;;;;;;;3.43;1.00;;;21.10;50.90;;;;;;2061008;28;20033;-89
2022/07/14 03:28:56;;;;;;;1.38;0.68;;;21.10;51.00;;;;;;2052588;28;20035;-90
2022/07/14 03:29:58;;;;;;;2.75;0.98;;;21.10;51.10;;;;;;2067830;28;20398;-89
2022/07/14 03:31:00;;;;;;;2.28;0.90;;;21.10;51.10;;;;;;2065499;28;20023;-90
2022/07/14 03:32:02;;;;;;;3.40;0.75;;;21.10;51.10;;;;;;2066189;28;20128;-89
2022/07/14 03:33:05;;;;;;;1.63;0.80;;;21.10;51.20;;;;;;2063615;28;20260;-89
2022/07/14 03:34:07;;;;;;;2.03;0.85;;;21.00;51.20;;;;;;2074570;28;20354;-90
2022/07/14 03:35:10;;;;;;;1.75;0.80;;;21.00;51.10;;;;;;2074252;28;20113;-90
2022/07/14 03:36:13;;;;;;;1.60;0.63;;;21.10;51.20;;;;;;2066355;28;20268;-90
2022/07/14 03:37:15;;;;;;;1.75;0.80;;;21.00;51.20;;;;;;2070898;28;20270;-88
2022/07/14 03:38:24;;;;;;;3.42;0.90;;;21.00;51.20;;;;;;2073359;28;20651;-90
2022/07/14 03:39:27;;;;;;;2.65;0.80;;;21.00;51.20;;;;;;2082495;28;20266;-92
2022/07/14 03:40:28;;;;;;;1.30;0.80;;;21.00;51.20;;;;;;2070611;28;20276;-90
2022/07/14 03:41:29;;;;;;;2.93;0.70;;;21.00;51.20;;;;;;2066083;28;20037;-88
2022/07/14 03:42:30;;;;;;;3.40;0.73;;;21.00;51.20;;;;;;2065913;28;20093;-90
2022/07/14 03:43:33;;;;;;;1.35;0.70;;;21.00;51.30;;;;;;2066504;28;20539;-89
2022/07/14 03:44:36;;;;;;;4.20;0.70;;;21.00;51.40;;;;;;2073937;28;20629;-91
2022/07/14 03:45:38;;;;;;;2.28;0.65;;;21.00;51.30;;;;;;2061556;28;20304;-90
2022/07/14 03:46:39;;;;;;;1.17;0.80;;;21.00;51.40;;;;;;2058466;28;20037;-90
2022/07/14 03:47:46;;;;;;;2.65;1.00;;;21.00;51.40;;;;;;2059179;28;20101;-92
2022/07/14 03:48:47;;;;;;;1.27;0.70;;;21.00;52.00;;;;;;2064265;28;20276;-90
2022/07/14 03:49:49;;;;;;;2.85;0.65;;;21.00;51.40;;;;;;2059855;28;20026;-89
2022/07/14 03:50:50;;;;;;;1.23;0.82;;;20.90;51.40;;;;;;2074418;28;20137;-90
2022/07/14 03:51:52;;;;;;;2.22;0.90;;;21.00;51.50;;;;;;2063744;28;20034;-90
2022/07/14 03:52:57;;;;;;;1.90;0.70;;;21.00;51.50;;;;;;2074881;28;20034;-91
2022/07/14 03:53:58;;;;;;;2.05;0.80;;;21.00;51.60;;;;;;2061436;28;20279;-88
2022/07/14 03:55:00;;;;;;;3.55;0.85;;;20.90;51.60;;;;;;2050326;28;20062;-91
2022/07/14 03:56:04;;;;;;;1.73;0.70;;;21.00;51.70;;;;;;2066094;28;20170;-90
2022/07/14 03:57:14;;;;;;;2.33;0.90;;;20.90;51.50;;;;;;2059135;28;20027;-89
2022/07/14 03:58:16;;;;;;;3.97;0.73;;;20.90;51.70;;;;;;2058514;28;20264;-89
2022/07/14 03:59:18;;;;;;;1.10;0.65;;;20.90;51.70;;;;;;2066238;28;20272;-88
2022/07/14 04:00:19;;;;;;;1.60;0.90;;;20.90;51.70;;;;;;2055773;28;20026;-90
2022/07/14 04:01:22;;;;;;;2.35;0.93;;;20.90;51.70;;;;;;2050857;28;20034;-89
2022/07/14 04:02:26;;;;;;;1.85;0.80;;;20.90;51.80;;;;;;2059794;28;20284;-88
2022/07/14 04:03:26;;;;;;;2.60;0.97;;;20.90;51.70;;;;;;2066574;28;20260;-89
2022/07/14 04:04:27;;;;;;;2.43;1.07;;;20.90;51.70;;;;;;2065199;28;20027;-90
2022/07/14 04:05:28;;;;;;;3.90;0.90;;;20.80;51.70;;;;;;2066099;28;20034;-89
2022/07/14 04:06:37;;;;;;;1.88;0.80;;;20.90;51.90;;;;;;2059320;28;20031;-90
2022/07/14 04:07:39;;;;;;;2.90;0.80;;;20.90;51.90;;;;;;2059261;28;20336;-91
2022/07/14 04:08:44;;;;;;;1.85;0.80;;;20.80;51.90;;;;;;2064320;28;20048;-89
2022/07/14 04:09:46;;;;;;;2.38;0.80;;;20.80;51.90;;;;;;2066590;28;20256;-90
2022/07/14 04:10:48;;;;;;;2.13;0.90;;;20.80;51.90;;;;;;2060279;28;20257;-89
2022/07/14 04:11:49;;;;;;;1.20;0.80;;;20.80;52.00;;;;;;2065251;28;20278;-89
2022/07/14 04:12:51;;;;;;;1.90;0.85;;;20.80;51.90;;;;;;2065800;28;20027;-90
2022/07/14 04:13:52;;;;;;;1.60;0.88;;;20.80;51.90;;;;;;2067012;28;20262;-89
2022/07/14 04:14:54;;;;;;;2.00;0.93;;;20.80;51.90;;;;;;2065914;28;20034;-88
2022/07/14 04:15:55;;;;;;;1.80;0.75;;;20.80;51.90;;;;;;2079884;28;20060;-90
2022/07/14 04:16:57;;;;;;;1.20;0.73;;;20.80;52.00;;;;;;2066167;28;20363;-90
2022/07/14 04:17:59;;;;;;;4.43;0.98;;;20.80;52.00;;;;;;2065300;28;20428;-91
2022/07/14 04:19:00;;;;;;;4.28;0.80;;;20.80;52.00;;;;;;2074399;28;20021;-90
2022/07/14 04:20:01;;;;;;;4.50;1.00;;;20.70;52.00;;;;;;2074272;28;20373;-91
2022/07/14 04:21:04;;;;;;;5.68;0.98;;;20.70;52.00;;;;;;2064429;28;20078;-89
2022/07/14 04:22:05;;;;;;;1.88;0.90;;;20.70;52.10;;;;;;2065305;28;20291;-89
2022/07/14 04:23:06;;;;;;;2.65;1.10;;;20.70;52.20;;;;;;2058180;28;20555;-87
2022/07/14 04:24:07;;;;;;;1.43;0.70;;;20.70;52.20;;;;;;2072926;28;20017;-91
2022/07/14 04:25:15;;;;;;;4.07;0.77;;;20.70;52.20;;;;;;2062009;28;20054;-90
2022/07/14 04:26:16;;;;;;;1.95;1.00;;;20.70;52.30;;;;;;2059340;28;20552;-88
2022/07/14 04:27:17;;;;;;;3.57;1.07;;;20.70;52.30;;;;;;2065624;28;20306;-90
2022/07/14 04:28:18;;;;;;;1.30;1.00;;;20.70;52.40;;;;;;2073485;28;20307;-91
2022/07/14 04:29:20;;;;;;;2.17;0.90;;;20.70;52.40;;;;;;2065770;28;20040;-90
2022/07/14 04:30:21;;;;;;;2.80;1.10;;;20.70;52.50;;;;;;2058073;28;20264;-89
2022/07/14 04:31:23;;;;;;;5.37;1.67;;;20.70;52.50;;;;;;2070702;28;20471;-90
2022/07/14 04:32:24;;;;;;;4.78;1.20;;;20.70;52.50;;;;;;2066406;28;20035;-91
2022/07/14 04:33:25;;;;;;;4.40;1.13;;;20.70;52.50;;;;;;2057912;28;20097;-92
2022/07/14 04:34:27;;;;;;;6.38;1.02;;;20.70;52.60;;;;;;2051038;28;20031;-89
2022/07/14 04:35:28;;;;;;;2.90;0.80;;;20.60;52.50;;;;;;2050247;28;20284;-90
2022/07/14 04:36:30;;;;;;;5.47;0.80;;;20.60;52.60;;;;;;2057898;28;20126;-90
2022/07/14 04:37:31;;;;;;;1.45;0.93;;;20.60;52.60;;;;;;2057923;28;20042;-89
2022/07/14 04:38:35;;;;;;;2.30;0.75;;;20.60;52.60;;;;;;2050611;28;20273;-91
2022/07/14 04:39:37;;;;;;;2.20;0.68;;;20.60;52.60;;;;;;2054754;28;20272;-90
2022/07/14 04:40:39;;;;;;;1.73;0.70;;;20.60;52.60;;;;;;2058168;28;20027;-91
2022/07/14 04:41:40;;;;;;;4.82;1.02;;;20.60;52.50;;;;;;2058187;28;20047;-90
2022/07/14 04:42:40;;;;;;;1.87;0.83;;;20.60;52.50;;;;;;2068327;28;20085;-90
2022/07/14 04:43:42;;;;;;;1.23;0.60;;;20.60;52.50;;;;;;2058400;28;20661;-89
2022/07/14 04:44:43;;;;;;;4.05;0.93;;;20.60;52.50;;;;;;2063253;28;20035;-89
2022/07/14 04:45:45;;;;;;;1.80;0.70;;;20.60;52.60;;;;;;2065819;28;20015;-88
2022/07/14 04:46:47;;;;;;;1.38;0.60;;;20.60;52.60;;;;;;2067987;28;20022;-90
2022/07/14 04:47:48;;;;;;;1.53;0.90;;;20.50;52.50;;;;;;2058159;28;20268;-90
2022/07/14 04:52:52;;;;;;;2.38;1.10;;;20.50;52.60;;;;;;2083095;28;20291;-89
2022/07/14 04:54:19;;;;;;;2.80;0.88;;;20.50;52.60;;;;;;2077373;28;20258;-87
2022/07/14 04:55:46;;;;;;;3.33;0.95;;;20.50;52.60;;;;;;2073299;28;20331;-88
2022/07/14 04:57:05;;;;;;;2.65;0.93;;;20.50;52.70;;;;;;2073929;28;20255;-89
2022/07/14 04:58:10;;;;;;;3.85;0.95;;;20.50;52.80;;;;;;2080340;28;20254;-90
2022/07/14 04:59:11;;;;;;;1.48;0.90;;;20.50;52.70;;;;;;2073691;28;20267;-89
2022/07/14 05:00:12;;;;;;;3.40;1.03;;;20.50;52.80;;;;;;2073133;28;20108;-88
2022/07/14 05:01:13;;;;;;;1.70;1.00;;;20.50;52.90;;;;;;2067131;28;20061;-89
2022/07/14 05:02:17;;;;;;;2.42;0.90;;;20.50;52.90;;;;;;2047862;28;20039;-89
2022/07/14 05:03:18;;;;;;;2.92;0.70;;;20.50;52.90;;;;;;2067918;28;20268;-89
2022/07/14 05:04:20;;;;;;;4.33;1.00;;;20.50;52.90;;;;;;2067236;28;20448;-90
2022/07/14 05:05:20;;;;;;;2.30;0.85;;;20.40;52.90;;;;;;2079293;28;20024;-89
2022/07/14 05:06:22;;;;;;;3.70;1.08;;;20.40;52.90;;;;;;2068200;28;20073;-90
2022/07/14 05:07:24;;;;;;;;;;;20.40;52.90;;;;;;2062139;28;20050;-89
2022/07/14 05:08:30;;;;;;;2.53;0.93;;;20.40;53.00;;;;;;2064181;28;19905;-90
2022/07/14 05:09:34;;;;;;;2.90;0.97;;;20.40;53.00;;;;;;2063069;28;20260;-88
2022/07/14 05:10:38;;;;;;;2.10;1.15;;;20.40;53.10;;;;;;2061066;28;20030;-91
2022/07/14 05:11:40;;;;;;;2.47;0.90;;;20.40;53.00;;;;;;2066951;28;20255;-91
2022/07/14 05:12:40;;;;;;;1.90;1.20;;;20.40;53.10;;;;;;2067884;28;20022;-89
2022/07/14 05:13:41;;;;;;;3.43;1.50;;;20.40;53.10;;;;;;2067665;28;20027;-90
2022/07/14 05:14:42;;;;;;;2.67;1.47;;;20.40;53.10;;;;;;2067688;28;20113;-91
2022/07/14 05:15:43;;;;;;;2.90;1.30;;;20.40;53.20;;;;;;2067483;28;20488;-89
2022/07/14 05:16:45;;;;;;;5.45;1.73;;;20.40;53.20;;;;;;2061644;28;20034;-89
2022/07/14 05:17:46;;;;;;;2.50;1.60;;;20.40;53.20;;;;;;2074673;28;20455;-92
2022/07/14 05:18:48;;;;;;;;;;;20.40;53.30;;;;;;2071809;28;20030;-90
2022/07/14 05:19:50;;;;;;;5.80;1.48;;;20.40;53.30;;;;;;2067621;28;19909;-90
2022/07/14 05:20:51;;;;;;;3.97;1.40;;;20.40;53.30;;;;;;2075760;28;20053;-90
2022/07/14 05:21:53;;;;;;;2.33;1.40;;;20.40;53.40;;;;;;2067529;28;20260;-90
2022/07/14 05:22:54;;;;;;;2.60;1.20;;;20.40;53.50;;;;;;2067926;28;20030;-90
2022/07/14 05:23:55;;;;;;;2.70;1.37;;;20.40;53.40;;;;;;2059558;28;20026;-89
2022/07/14 05:24:58;;;;;;;4.47;1.50;;;20.40;53.40;;;;;;2060022;28;20031;-89
2022/07/14 05:25:59;;;;;;;2.90;1.70;;;20.40;53.50;;;;;;2067900;28;20030;-90
2022/07/14 05:27:01;;;;;;;2.80;1.70;;;20.30;53.50;;;;;;2069528;28;20691;-89
2022/07/14 05:28:03;;;;;;;2.38;1.35;;;20.30;53.50;;;;;;2059691;28;20535;-89
2022/07/14 05:29:06;;;;;;;2.80;0.93;;;20.40;53.50;;;;;;2068217;28;20113;-90
2022/07/14 05:30:09;;;;;;;4.75;1.05;;;20.30;54.00;;;;;;2067347;28;20260;-90
2022/07/14 05:31:10;;;;;;;3.38;0.90;;;20.30;53.40;;;;;;2067173;28;20085;-90
2022/07/14 05:32:14;;;;;;;2.35;0.93;;;20.30;53.40;;;;;;2067261;28;20363;-90
2022/07/14 05:33:15;;;;;;;3.17;1.00;;;20.30;53.50;;;;;;2067766;28;20264;-91